Time;durP1;ratioP1;P1;durP2;ratioP2;P2;SDS_P1;SDS_P2;PMS_P1;PMS_P2;Temp;Humidity;BMP_temperature;BMP_pressure;BME280_temperature;BME280_humidity;BME280_pressure;Samples;Min_cycle;Max_cycle;Signal;HPM_P1;HPM_P2
2022/11/22 00:02:12;;;;;;;4.00;1.02;;;6.20;99.90;;;;;;4936485;28;20503;-87
2022/11/22 00:04:37;;;;;;;4.32;1.00;;;6.20;99.90;;;;;;4952160;28;20043;-86
2022/11/22 00:07:03;;;;;;;6.93;1.40;;;6.30;99.90;;;;;;4936190;28;20453;-87
2022/11/22 00:09:28;;;;;;;2.80;1.20;;;6.30;99.90;;;;;;4952611;28;20526;-87
2022/11/22 00:11:54;;;;;;;2.38;0.57;;;6.30;99.90;;;;;;4955572;28;20031;-87
2022/11/22 00:14:19;;;;;;;4.93;1.10;;;6.30;99.90;;;;;;4940421;28;20054;-87
2022/11/22 00:16:45;;;;;;;3.20;0.90;;;6.30;99.90;;;;;;4957423;28;20027;-87
2022/11/22 00:19:10;;;;;;;6.18;1.70;;;6.30;99.90;;;;;;4939692;28;20082;-87
2022/11/22 00:21:36;;;;;;;2.63;1.10;;;6.30;99.90;;;;;;4966716;28;20038;-87
2022/11/22 00:24:02;;;;;;;3.30;1.65;;;6.30;99.90;;;;;;4953478;28;20046;-87
2022/11/22 00:26:27;;;;;;;6.63;1.42;;;6.30;99.90;;;;;;4951849;28;20101;-87
2022/11/22 00:28:53;;;;;;;7.25;1.77;;;6.20;99.90;;;;;;4956896;28;20038;-87
2022/11/22 00:31:18;;;;;;;4.60;0.82;;;6.20;99.90;;;;;;4950195;28;20035;-86
2022/11/22 00:33:44;;;;;;;6.75;1.35;;;6.20;99.90;;;;;;4969276;28;20030;-87
2022/11/22 00:36:10;;;;;;;7.38;1.70;;;6.20;99.90;;;;;;4951403;28;20031;-87
2022/11/22 00:38:35;;;;;;;4.85;1.50;;;6.20;99.90;;;;;;4952374;28;20038;-87
2022/11/22 00:41:01;;;;;;;3.58;1.23;;;6.20;99.90;;;;;;4967669;28;20162;-87
2022/11/22 00:43:26;;;;;;;7.40;1.55;;;6.20;99.90;;;;;;4966488;28;20475;-88
2022/11/22 00:45:52;;;;;;;3.60;1.30;;;6.20;99.90;;;;;;4934589;28;20402;-87
2022/11/22 00:48:17;;;;;;;4.25;1.45;;;6.20;99.90;;;;;;4937778;28;20500;-87
2022/11/22 00:50:43;;;;;;;5.47;1.58;;;6.20;99.90;;;;;;4936182;28;20487;-87
2022/11/22 00:53:08;;;;;;;6.63;2.63;;;6.10;99.90;;;;;;4984398;28;20391;-87
2022/11/22 00:55:34;;;;;;;3.50;0.95;;;6.20;99.90;;;;;;4950234;28;20031;-87
2022/11/22 00:57:59;;;;;;;5.25;1.58;;;6.20;99.90;;;;;;4951910;28;20122;-87
2022/11/22 01:00:25;;;;;;;3.05;2.28;;;6.20;99.90;;;;;;4937695;28;20117;-87
2022/11/22 01:02:51;;;;;;;3.60;1.10;;;6.20;99.90;;;;;;4953157;28;20121;-87
2022/11/22 01:05:17;;;;;;;3.67;1.13;;;6.20;99.90;;;;;;4953615;28;20066;-88
2022/11/22 01:07:43;;;;;;;4.03;1.33;;;6.20;99.90;;;;;;4967266;28;20030;-87
2022/11/22 01:10:09;;;;;;;6.57;1.52;;;6.30;99.90;;;;;;4982724;28;20391;-87
2022/11/22 01:12:35;;;;;;;2.05;1.25;;;6.20;99.90;;;;;;4954087;28;20031;-87
2022/11/22 01:15:01;;;;;;;2.38;1.23;;;6.20;99.90;;;;;;4966583;28;20039;-87
2022/11/22 01:17:26;;;;;;;3.47;1.25;;;6.20;99.90;;;;;;4966737;28;20035;-85
2022/11/22 01:19:52;;;;;;;5.00;1.30;;;6.20;99.90;;;;;;4950653;28;20074;-85
2022/11/22 01:22:17;;;;;;;6.18;2.47;;;6.20;99.90;;;;;;4932204;28;20117;-87
2022/11/22 01:24:43;;;;;;;3.38;1.30;;;6.20;99.90;;;;;;4968007;28;20091;-87
2022/11/22 01:27:08;;;;;;;5.93;1.33;;;6.20;99.90;;;;;;4952722;28;20058;-87
2022/11/22 01:29:34;;;;;;;1.02;0.85;;;6.20;99.90;;;;;;4951623;28;20410;-87
2022/11/22 01:31:59;;;;;;;2.78;1.15;;;6.20;99.90;;;;;;4953157;28;20035;-87
2022/11/22 01:34:25;;;;;;;4.00;1.50;;;6.20;99.90;;;;;;4920386;28;20027;-87
2022/11/22 01:36:50;;;;;;;5.38;1.58;;;6.10;99.90;;;;;;4950245;28;20055;-87
2022/11/22 01:39:19;;;;;;;7.20;1.63;;;6.30;99.90;;;;;;4950185;28;20023;-87
2022/11/22 01:41:44;;;;;;;7.20;1.55;;;6.20;99.90;;;;;;4966520;28;20397;-88
2022/11/22 01:44:24;;;;;;;5.25;1.88;;;6.20;99.90;;;;;;4970006;28;20031;-87
2022/11/22 01:46:56;;;;;;;5.05;1.23;;;6.20;99.90;;;;;;4969580;28;20479;-87
2022/11/22 01:49:45;;;;;;;5.22;1.70;;;6.30;99.90;;;;;;4952074;28;20118;-88
2022/11/22 01:52:15;;;;;;;8.23;1.38;;;6.30;99.90;;;;;;4962151;28;20529;-87
2022/11/22 01:54:41;;;;;;;5.53;1.50;;;6.30;99.90;;;;;;4955940;28;20553;-87
2022/11/22 01:57:10;;;;;;;4.40;1.50;;;6.30;99.90;;;;;;4937396;28;20463;-87
2022/11/22 01:59:36;;;;;;;2.80;1.50;;;6.30;99.90;;;;;;4950162;28;20031;-87
2022/11/22 02:02:03;;;;;;;1.98;1.23;;;6.20;99.90;;;;;;4954220;28;20030;-87
2022/11/22 02:04:28;;;;;;;6.22;1.40;;;6.30;99.90;;;;;;4937735;28;20027;-87
2022/11/22 02:06:56;;;;;;;1.83;1.42;;;6.20;99.90;;;;;;4936492;28;20389;-87
2022/11/22 02:09:22;;;;;;;5.05;1.58;;;6.30;99.90;;;;;;4934366;28;20031;-87
2022/11/22 02:11:49;;;;;;;1.88;0.70;;;6.30;99.90;;;;;;4951127;28;20759;-87
2022/11/22 02:14:15;;;;;;;2.85;0.90;;;6.30;99.90;;;;;;4936432;28;20102;-87
2022/11/22 02:16:41;;;;;;;3.78;1.95;;;6.20;99.90;;;;;;4964580;28;20031;-87
2022/11/22 02:19:11;;;;;;;4.72;1.70;;;6.30;99.90;;;;;;4934921;28;20097;-87
2022/11/22 02:21:37;;;;;;;7.93;1.20;;;6.30;99.90;;;;;;4967476;28;20430;-87
2022/11/22 02:24:11;;;;;;;4.53;1.55;;;6.30;99.90;;;;;;4983599;28;20043;-87
2022/11/22 02:26:36;;;;;;;7.90;1.63;;;6.40;99.90;;;;;;4914579;28;20114;-87
2022/11/22 02:29:04;;;;;;;7.30;1.75;;;6.30;99.90;;;;;;4966912;28;20047;-87
2022/11/22 02:31:41;;;;;;;6.22;1.35;;;6.40;99.90;;;;;;4968307;28;20027;-87
2022/11/22 02:34:07;;;;;;;8.23;1.67;;;6.30;99.90;;;;;;4929529;28;20418;-87
2022/11/22 02:36:36;;;;;;;5.53;1.45;;;6.40;99.90;;;;;;4965802;28;20517;-87
2022/11/22 02:39:02;;;;;;;7.07;1.10;;;6.40;99.90;;;;;;4952251;28;20061;-87
2022/11/22 02:41:27;;;;;;;4.75;1.73;;;6.40;99.90;;;;;;4929758;28;20050;-87
2022/11/22 02:43:53;;;;;;;7.80;1.02;;;6.40;99.90;;;;;;4917955;28;20475;-87
2022/11/22 02:46:22;;;;;;;7.75;2.05;;;6.40;99.90;;;;;;4935815;28;20030;-87
2022/11/22 02:48:49;;;;;;;7.10;1.40;;;6.40;99.90;;;;;;4974014;28;20039;-86
2022/11/22 02:51:15;;;;;;;5.35;1.45;;;6.40;99.90;;;;;;4950573;28;20830;-86
2022/11/22 02:53:48;;;;;;;7.50;1.65;;;6.40;99.90;;;;;;4933898;28;20035;-87
2022/11/22 02:56:14;;;;;;;6.82;1.73;;;6.30;99.90;;;;;;4958046;28;20044;-85
2022/11/22 02:58:40;;;;;;;4.25;1.48;;;6.30;99.90;;;;;;4958291;28;20094;-85
2022/11/22 03:01:07;;;;;;;12.00;1.95;;;6.30;99.90;;;;;;4950999;28;20388;-85
2022/11/22 03:03:33;;;;;;;7.45;1.65;;;6.20;99.90;;;;;;4947064;28;20034;-84
2022/11/22 03:05:59;;;;;;;5.13;1.55;;;6.20;99.90;;;;;;4968524;28;20117;-85
2022/11/22 03:08:24;;;;;;;8.05;2.17;;;6.20;99.90;;;;;;4932358;28;20038;-86
2022/11/22 03:10:50;;;;;;;7.00;1.58;;;6.30;99.90;;;;;;4946584;28;20061;-85
2022/11/22 03:13:16;;;;;;;4.43;1.38;;;6.30;99.90;;;;;;4937015;28;20038;-85
2022/11/22 03:15:41;;;;;;;9.60;1.63;;;6.30;99.90;;;;;;4940141;28;20037;-85
2022/11/22 03:18:07;;;;;;;3.60;1.40;;;6.30;99.90;;;;;;4920355;28;20118;-85
2022/11/22 03:20:42;;;;;;;7.40;1.73;;;6.30;99.90;;;;;;4928918;28;20462;-88
2022/11/22 03:23:08;;;;;;;9.40;2.07;;;6.30;99.90;;;;;;4950716;28;20486;-88
2022/11/22 03:25:36;;;;;;;7.28;1.95;;;6.30;99.90;;;;;;4935403;28;20022;-87
2022/11/22 03:28:02;;;;;;;1.65;0.82;;;6.30;99.90;;;;;;4966508;28;20216;-85
2022/11/22 03:30:27;;;;;;;3.45;1.38;;;6.30;99.90;;;;;;4936131;28;20121;-85
2022/11/22 03:32:54;;;;;;;5.53;1.23;;;6.40;99.90;;;;;;4949015;28;20043;-87
2022/11/22 03:35:19;;;;;;;7.10;1.88;;;6.40;99.90;;;;;;4931569;28;20086;-88
2022/11/22 03:37:45;;;;;;;6.30;1.42;;;6.30;99.90;;;;;;4960079;28;20483;-87
2022/11/22 03:40:19;;;;;;;5.05;1.20;;;6.30;99.90;;;;;;4943177;28;20035;-87
2022/11/22 03:42:45;;;;;;;8.63;2.03;;;6.30;99.90;;;;;;4971113;28;20032;-88
2022/11/22 03:45:11;;;;;;;8.85;2.22;;;6.30;99.90;;;;;;4948783;28;20090;-87
2022/11/22 03:47:39;;;;;;;5.80;1.40;;;6.30;99.90;;;;;;4964586;28;20039;-87
2022/11/22 03:50:05;;;;;;;11.95;1.73;;;6.30;99.90;;;;;;4959334;28;20045;-87
2022/11/22 03:52:30;;;;;;;6.50;1.88;;;6.20;99.90;;;;;;4953445;28;20027;-87
2022/11/22 03:54:56;;;;;;;10.85;2.13;;;6.20;99.90;;;;;;4951568;28;20070;-88
2022/11/22 03:57:28;;;;;;;7.78;2.35;;;6.10;99.90;;;;;;4936923;28;20042;-84
2022/11/22 03:59:54;;;;;;;9.38;2.05;;;6.00;99.90;;;;;;4949838;28;20226;-85
2022/11/22 04:02:20;;;;;;;7.13;1.55;;;6.10;99.90;;;;;;4953372;28;20181;-84
2022/11/22 04:04:45;;;;;;;6.55;1.88;;;6.10;99.90;;;;;;4955640;28;20042;-85
2022/11/22 04:07:11;;;;;;;6.90;1.65;;;6.20;99.90;;;;;;4954845;28;20135;-85
2022/11/22 04:09:36;;;;;;;5.97;2.05;;;6.10;99.90;;;;;;4956189;28;20387;-88
2022/11/22 04:12:02;;;;;;;8.48;1.67;;;6.10;99.90;;;;;;4969506;28;20103;-88
2022/11/22 04:17:12;;;;;;;8.00;1.35;;;6.00;99.90;;;;;;4956599;28;20467;-87
2022/11/22 04:19:38;;;;;;;5.25;1.17;;;6.00;99.90;;;;;;4950959;28;20024;-87
2022/11/22 04:22:03;;;;;;;7.65;1.83;;;6.00;99.90;;;;;;4972284;28;20030;-87
2022/11/22 04:27:13;;;;;;;7.05;1.60;;;6.00;99.90;;;;;;4966773;28;20054;-87
2022/11/22 04:29:39;;;;;;;10.20;1.60;;;6.00;99.90;;;;;;4951686;28;20031;-87
2022/11/22 04:34:48;;;;;;;7.97;1.58;;;6.00;99.90;;;;;;4948277;28;20675;-87
2022/11/22 04:37:14;;;;;;;4.97;1.35;;;6.00;99.90;;;;;;4967405;28;20023;-87
2022/11/22 04:39:41;;;;;;;5.97;1.92;;;5.90;99.90;;;;;;4959901;28;20045;-88
2022/11/22 04:44:52;;;;;;;1.48;0.65;;;5.80;99.90;;;;;;4953219;28;20041;-85
2022/11/22 04:52:52;;;;;;;6.65;1.08;;;5.90;99.90;;;;;;4969702;28;20166;-87
2022/11/22 04:52:54;;;;;;;6.32;1.55;;;5.80;99.90;;;;;;4943356;28;20085;-88
2022/11/22 04:55:27;;;;;;;9.05;2.03;;;5.80;99.90;;;;;;4936191;28;20034;-87
2022/11/22 04:57:53;;;;;;;4.10;1.17;;;5.90;99.90;;;;;;4961609;28;20065;-87
2022/11/22 05:00:18;;;;;;;12.05;2.40;;;5.90;99.90;;;;;;4955512;28;20550;-87
2022/11/22 05:02:45;;;;;;;5.32;1.83;;;5.90;99.90;;;;;;4955612;28;21619;-87
2022/11/22 05:05:11;;;;;;;10.73;2.33;;;5.90;99.90;;;;;;4965792;28;20046;-86
2022/11/22 05:07:36;;;;;;;5.70;1.42;;;5.80;99.90;;;;;;4912393;28;20031;-86
2022/11/22 05:10:02;;;;;;;9.38;1.98;;;5.80;99.90;;;;;;4937279;28;20046;-87
2022/11/22 05:12:28;;;;;;;7.88;1.92;;;5.80;99.90;;;;;;4936795;28;20042;-88
2022/11/22 05:14:55;;;;;;;14.40;1.85;;;5.80;99.90;;;;;;4949021;28;20043;-86
2022/11/22 05:17:20;;;;;;;7.43;2.40;;;5.70;99.90;;;;;;4949604;28;20042;-86
2022/11/22 05:19:46;;;;;;;13.50;2.40;;;5.70;99.90;;;;;;4947472;28;20031;-86
2022/11/22 05:22:11;;;;;;;11.93;2.00;;;5.70;99.90;;;;;;4914257;28;20032;-86
2022/11/22 05:24:37;;;;;;;8.65;1.95;;;5.70;99.90;;;;;;4949450;28;20054;-86
2022/11/22 05:27:03;;;;;;;14.25;2.28;;;5.70;99.90;;;;;;4951836;28;20027;-86
2022/11/22 05:29:28;;;;;;;13.13;3.17;;;5.70;99.90;;;;;;4977111;28;20027;-86
2022/11/22 05:31:54;;;;;;;6.22;1.13;;;5.70;99.90;;;;;;4953170;28;20578;-87
2022/11/22 05:34:20;;;;;;;10.48;2.58;;;5.70;99.90;;;;;;4911359;28;20026;-86
2022/11/22 05:36:45;;;;;;;8.65;2.25;;;5.70;99.90;;;;;;4952045;28;20027;-87
2022/11/22 05:39:11;;;;;;;7.63;1.65;;;5.60;99.90;;;;;;4965624;28;20574;-87
2022/11/22 05:41:37;;;;;;;12.35;2.45;;;5.60;99.90;;;;;;4928929;28;20395;-88
2022/11/22 05:44:03;;;;;;;6.70;2.03;;;5.60;99.90;;;;;;4934752;28;20034;-87
2022/11/22 05:46:47;;;;;;;4.28;1.52;;;5.60;99.90;;;;;;4954281;28;20049;-87
2022/11/22 05:49:12;;;;;;;14.02;1.85;;;5.60;99.90;;;;;;4900088;28;20784;-87
2022/11/22 05:51:38;;;;;;;5.40;1.35;;;5.60;99.90;;;;;;4947597;28;20110;-87
2022/11/22 05:54:04;;;;;;;4.63;1.38;;;5.50;99.90;;;;;;4918559;28;20126;-87
2022/11/22 05:56:29;;;;;;;3.63;0.82;;;5.50;99.90;;;;;;4959122;28;20143;-86
2022/11/22 05:58:55;;;;;;;11.50;1.73;;;5.50;99.90;;;;;;4951977;28;20035;-87
2022/11/22 06:01:24;;;;;;;7.03;1.60;;;5.50;99.90;;;;;;4937365;28;20037;-86
2022/11/22 06:03:50;;;;;;;7.35;1.40;;;5.50;99.90;;;;;;4962354;28;20035;-86
2022/11/22 06:06:19;;;;;;;4.55;1.05;;;5.50;99.90;;;;;;4949462;28;20065;-87
2022/11/22 06:08:46;;;;;;;4.10;1.10;;;5.50;99.90;;;;;;4933378;28;20110;-87
2022/11/22 06:11:20;;;;;;;1.17;0.65;;;5.50;99.90;;;;;;4947735;28;20043;-86
2022/11/22 06:13:47;;;;;;;6.10;1.30;;;5.40;99.90;;;;;;4916980;28;20114;-87
2022/11/22 06:16:13;;;;;;;5.10;1.73;;;5.40;99.90;;;;;;4931994;28;20518;-86
2022/11/22 06:18:39;;;;;;;6.45;1.45;;;5.50;99.90;;;;;;4949243;28;20114;-86
2022/11/22 06:21:06;;;;;;;4.85;1.60;;;5.50;99.90;;;;;;4964170;28;20109;-86
2022/11/22 06:23:32;;;;;;;7.40;1.40;;;5.50;99.90;;;;;;4947065;28;20027;-86
2022/11/22 06:25:58;;;;;;;13.68;1.98;;;5.50;99.90;;;;;;4962428;28;20045;-86
2022/11/22 06:28:23;;;;;;;10.27;1.88;;;5.50;99.90;;;;;;4947889;28;20034;-85
2022/11/22 06:30:49;;;;;;;11.15;2.00;;;5.40;99.90;;;;;;4964482;28;20070;-86
2022/11/22 06:33:14;;;;;;;7.90;1.42;;;5.40;99.90;;;;;;4936662;28;20022;-86
2022/11/22 06:35:40;;;;;;;3.72;1.52;;;5.40;99.90;;;;;;4946259;28;20386;-86
2022/11/22 06:38:05;;;;;;;13.48;1.70;;;5.40;99.90;;;;;;4953965;28;20089;-86
2022/11/22 06:40:31;;;;;;;12.13;2.78;;;5.40;99.90;;;;;;4933250;28;20041;-86
2022/11/22 06:42:57;;;;;;;4.22;1.23;;;5.30;99.90;;;;;;4944295;28;20062;-86
2022/11/22 06:45:22;;;;;;;7.88;1.10;;;5.30;99.90;;;;;;4933899;28;20035;-86
2022/11/22 06:47:48;;;;;;;8.10;1.67;;;5.20;99.90;;;;;;4946205;28;20109;-86
2022/11/22 06:50:14;;;;;;;10.68;1.63;;;5.30;99.90;;;;;;4977870;28;20076;-86
2022/11/22 06:52:40;;;;;;;8.88;2.28;;;5.20;99.90;;;;;;4946357;28;20735;-86
2022/11/22 06:55:06;;;;;;;7.97;1.63;;;5.20;99.90;;;;;;4964478;28;20486;-85
2022/11/22 06:57:31;;;;;;;12.82;1.60;;;5.20;99.90;;;;;;4936834;28;20039;-86
2022/11/22 06:59:59;;;;;;;11.57;2.85;;;5.20;99.90;;;;;;4971904;28;20074;-86
2022/11/22 07:02:25;;;;;;;10.60;1.80;;;5.30;99.90;;;;;;4947067;28;20455;-85
2022/11/22 07:04:50;;;;;;;14.75;2.17;;;5.20;99.90;;;;;;4947919;28;20047;-86
2022/11/22 07:07:16;;;;;;;5.13;1.17;;;5.20;99.90;;;;;;4948652;28;20085;-86
2022/11/22 07:09:41;;;;;;;12.35;2.20;;;5.20;99.90;;;;;;4949087;28;20093;-86
2022/11/22 07:12:07;;;;;;;10.63;2.33;;;5.10;99.90;;;;;;4934400;28;20037;-86
2022/11/22 07:14:33;;;;;;;7.90;1.73;;;5.10;99.90;;;;;;4932255;28;20089;-86
2022/11/22 07:16:58;;;;;;;9.60;2.03;;;5.10;99.90;;;;;;4959918;28;20034;-86
2022/11/22 07:19:24;;;;;;;19.90;2.90;;;5.20;99.90;;;;;;4932740;28;20058;-85
2022/11/22 07:21:49;;;;;;;16.60;2.25;;;5.00;99.90;;;;;;4940017;28;20440;-86
2022/11/22 07:24:23;;;;;;;13.75;2.40;;;5.00;99.90;;;;;;4950674;28;20038;-86
2022/11/22 07:26:50;;;;;;;6.95;1.63;;;5.00;99.90;;;;;;4964705;28;20405;-86
2022/11/22 07:29:16;;;;;;;7.25;1.88;;;5.00;99.90;;;;;;4958349;28;20161;-88
2022/11/22 07:31:44;;;;;;;11.05;2.97;;;5.00;99.90;;;;;;4955013;28;20094;-88
2022/11/22 07:34:09;;;;;;;16.63;4.25;;;5.00;99.90;;;;;;4941430;28;20035;-88
2022/11/22 07:36:37;;;;;;;14.63;2.90;;;5.00;99.90;;;;;;4923208;28;20057;-86
2022/11/22 07:39:03;;;;;;;12.98;2.15;;;5.10;99.90;;;;;;4948633;28;20045;-87
2022/11/22 07:41:28;;;;;;;9.70;2.15;;;5.00;99.90;;;;;;4948504;28;20042;-87
2022/11/22 07:43:54;;;;;;;9.15;2.45;;;5.00;99.90;;;;;;4980449;28;20039;-87
2022/11/22 07:46:25;;;;;;;12.70;3.08;;;5.00;99.90;;;;;;4949909;28;20086;-88
2022/11/22 07:48:50;;;;;;;4.57;1.42;;;5.00;99.90;;;;;;4953635;28;20023;-88
2022/11/22 07:51:16;;;;;;;13.40;3.53;;;5.00;99.90;;;;;;4939240;28;20061;-89
2022/11/22 07:53:42;;;;;;;7.38;1.75;;;5.10;99.90;;;;;;4969876;28;20118;-88
2022/11/22 07:56:07;;;;;;;12.63;1.67;;;5.10;99.90;;;;;;4951684;28;20097;-88
2022/11/22 07:58:33;;;;;;;8.18;2.03;;;5.20;99.90;;;;;;4951579;28;20035;-89
2022/11/22 08:01:12;;;;;;;4.85;1.58;;;5.30;99.90;;;;;;4937046;28;20560;-88
2022/11/22 08:03:38;;;;;;;11.27;2.30;;;5.30;99.90;;;;;;4930830;28;20455;-87
2022/11/22 08:06:05;;;;;;;11.32;2.03;;;5.40;99.90;;;;;;4975189;28;20045;-87
2022/11/22 08:08:30;;;;;;;7.65;1.77;;;5.40;99.90;;;;;;4932215;28;20034;-88
2022/11/22 08:10:56;;;;;;;9.82;1.95;;;5.60;99.90;;;;;;4946639;28;20557;-88
2022/11/22 08:13:22;;;;;;;11.32;2.10;;;5.60;99.90;;;;;;4953218;28;20062;-88
2022/11/22 08:15:48;;;;;;;5.50;1.45;;;5.70;99.90;;;;;;4967755;28;20509;-87
2022/11/22 08:18:14;;;;;;;17.23;1.77;;;5.70;99.90;;;;;;4913690;28;20143;-87
2022/11/22 08:20:40;;;;;;;4.43;1.45;;;5.70;99.90;;;;;;4944861;28;20142;-87
2022/11/22 08:23:05;;;;;;;6.95;1.60;;;5.80;99.90;;;;;;4978368;28;20605;-87
2022/11/22 08:25:31;;;;;;;15.30;1.55;;;6.00;99.90;;;;;;4949634;28;20035;-86
2022/11/22 08:27:56;;;;;;;9.35;1.42;;;6.20;99.90;;;;;;4964672;28;20081;-87
2022/11/22 08:30:23;;;;;;;7.97;2.10;;;6.20;99.90;;;;;;4933046;28;20038;-87
2022/11/22 08:32:50;;;;;;;9.02;1.73;;;6.20;99.90;;;;;;4948142;28;20035;-87
2022/11/22 08:35:16;;;;;;;11.52;1.52;;;6.30;99.90;;;;;;4968603;28;20420;-87
2022/11/22 08:37:41;;;;;;;6.43;0.90;;;6.40;99.90;;;;;;4935730;28;20039;-87
2022/11/22 08:40:08;;;;;;;12.50;1.55;;;6.40;99.90;;;;;;4930489;28;20035;-87
2022/11/22 08:42:33;;;;;;;12.88;1.63;;;6.40;99.90;;;;;;4960665;28;20166;-87
2022/11/22 08:44:59;;;;;;;8.45;1.58;;;6.40;99.90;;;;;;4970081;28;20109;-87
2022/11/22 08:47:24;;;;;;;8.65;1.58;;;6.50;99.90;;;;;;4933890;28;20031;-87
2022/11/22 08:49:50;;;;;;;6.75;1.35;;;6.80;99.90;;;;;;4953556;28;20034;-87
2022/11/22 08:52:16;;;;;;;10.10;3.03;;;6.80;99.90;;;;;;4979984;28;20038;-87
2022/11/22 08:54:41;;;;;;;8.50;1.45;;;6.90;99.90;;;;;;4969669;28;20027;-87
2022/11/22 08:57:07;;;;;;;10.88;1.98;;;6.90;99.90;;;;;;4952451;28;20038;-87
2022/11/22 08:59:32;;;;;;;10.98;1.40;;;7.10;99.90;;;;;;4933741;28;20035;-88
2022/11/22 09:01:58;;;;;;;9.63;1.35;;;7.10;99.90;;;;;;4977461;28;20039;-87
2022/11/22 09:04:23;;;;;;;13.73;1.70;;;7.40;99.90;;;;;;4950627;28;20026;-87
2022/11/22 09:06:49;;;;;;;8.27;1.38;;;7.40;99.90;;;;;;4952261;28;20485;-88
2022/11/22 09:09:15;;;;;;;9.85;1.67;;;7.70;99.90;;;;;;4951005;28;20027;-87
2022/11/22 09:11:41;;;;;;;4.60;1.48;;;7.60;99.90;;;;;;4965040;28;20118;-87
2022/11/22 09:14:12;;;;;;;9.85;1.60;;;8.00;99.90;;;;;;4927957;28;20058;-86
2022/11/22 09:16:51;;;;;;;8.07;1.65;;;8.00;99.90;;;;;;4939811;28;20027;-88
2022/11/22 09:19:16;;;;;;;8.85;1.77;;;8.00;99.90;;;;;;4926167;28;20129;-87
2022/11/22 09:21:42;;;;;;;4.75;1.20;;;8.10;99.90;;;;;;4963941;28;20114;-87
2022/11/22 09:24:08;;;;;;;7.32;1.10;;;8.20;99.90;;;;;;4941527;28;20122;-87
2022/11/22 09:26:33;;;;;;;7.57;1.70;;;8.40;99.90;;;;;;4944364;28;20062;-88
2022/11/22 09:28:59;;;;;;;8.52;1.10;;;8.50;99.90;;;;;;4933747;28;20126;-87
2022/11/22 09:31:29;;;;;;;4.10;0.75;;;8.60;99.90;;;;;;4941542;28;20062;-87
2022/11/22 09:33:56;;;;;;;4.93;0.90;;;8.60;99.90;;;;;;4932953;28;20380;-87
2022/11/22 09:36:25;;;;;;;2.67;1.25;;;8.80;99.90;;;;;;4970384;28;20038;-87
2022/11/22 09:38:50;;;;;;;5.03;0.98;;;8.90;99.90;;;;;;4968410;28;20379;-87
2022/11/22 09:41:27;;;;;;;4.35;0.90;;;9.10;99.90;;;;;;4981010;28;20045;-88
2022/11/22 09:44:02;;;;;;;8.85;1.52;;;9.10;99.90;;;;;;4938152;28;20111;-87
2022/11/22 09:46:33;;;;;;;4.72;1.23;;;9.00;99.90;;;;;;4957919;28;20536;-87
2022/11/22 09:49:02;;;;;;;7.65;2.15;;;9.30;99.90;;;;;;4969012;28;20039;-87
2022/11/22 09:51:50;;;;;;;8.48;1.02;;;9.40;99.90;;;;;;4933716;28;20037;-88
2022/11/22 09:54:24;;;;;;;3.08;0.82;;;9.20;99.90;;;;;;4954847;28;20026;-88
2022/11/22 09:56:51;;;;;;;4.03;0.98;;;9.40;99.90;;;;;;4970115;28;20478;-87
2022/11/22 09:59:20;;;;;;;8.55;0.95;;;9.60;99.90;;;;;;4949362;28;20035;-87
2022/11/22 10:02:07;;;;;;;4.97;0.88;;;9.60;99.90;;;;;;4927067;28;20545;-87
2022/11/22 10:04:59;;;;;;;8.85;1.60;;;9.70;99.90;;;;;;4950179;28;20390;-87
2022/11/22 10:07:34;;;;;;;9.07;1.48;;;9.70;99.90;;;;;;4937502;28;20038;-87
2022/11/22 10:10:04;;;;;;;3.72;1.13;;;9.60;99.90;;;;;;4915705;28;20065;-87
2022/11/22 10:12:46;;;;;;;4.75;1.00;;;10.10;99.90;;;;;;4892015;28;20047;-86
2022/11/22 10:15:51;;;;;;;4.75;0.80;;;10.40;99.90;;;;;;4964256;28;20047;-86
2022/11/22 10:18:45;;;;;;;6.05;0.90;;;10.20;99.90;;;;;;4952104;28;20034;-86
2022/11/22 10:21:12;;;;;;;2.97;0.70;;;10.10;99.90;;;;;;4968321;28;20094;-87
2022/11/22 10:23:42;;;;;;;4.90;0.63;;;10.50;99.90;;;;;;4952367;28;20060;-86
2022/11/22 10:26:31;;;;;;;2.30;0.30;;;10.40;99.90;;;;;;4964562;28;20042;-87
2022/11/22 10:29:16;;;;;;;4.10;0.80;;;10.50;99.90;;;;;;4975870;28;20510;-86
2022/11/22 10:32:39;;;;;;;3.38;0.82;;;10.50;99.90;;;;;;4932108;28;20081;-86
2022/11/22 10:35:13;;;;;;;6.00;1.13;;;10.50;99.90;;;;;;4903004;29;20040;-87
2022/11/22 10:37:53;;;;;;;5.82;0.73;;;10.40;99.90;;;;;;4907145;29;20686;-86
2022/11/22 10:40:24;;;;;;;4.63;1.15;;;10.40;99.90;;;;;;4926932;28;20130;-86
2022/11/22 10:43:11;;;;;;;4.15;0.63;;;10.40;99.90;;;;;;4940569;28;20031;-88
2022/11/22 10:45:59;;;;;;;5.40;1.30;;;10.60;99.90;;;;;;4971271;28;20031;-87
2022/11/22 10:48:37;;;;;;;5.68;0.88;;;10.60;99.90;;;;;;4946504;28;20104;-87
2022/11/22 10:51:11;;;;;;;5.35;0.93;;;10.40;99.90;;;;;;4962058;28;20082;-87
2022/11/22 10:53:49;;;;;;;3.80;0.70;;;10.40;99.90;;;;;;4949059;28;20037;-87
2022/11/22 10:56:31;;;;;;;5.28;1.10;;;10.40;99.90;;;;;;4948236;28;20039;-87
2022/11/22 10:59:11;;;;;;;8.13;1.02;;;10.30;99.90;;;;;;4937646;28;20046;-86
2022/11/22 11:02:18;;;;;;;11.13;1.17;;;10.20;99.90;;;;;;4928273;28;20419;-86
2022/11/22 11:04:44;;;;;;;4.18;0.82;;;10.10;99.90;;;;;;4933601;28;20193;-86
2022/11/22 11:07:15;;;;;;;5.30;1.20;;;10.10;99.90;;;;;;4938785;28;20082;-87
2022/11/22 11:09:55;;;;;;;3.20;0.90;;;10.00;99.90;;;;;;4937435;28;20089;-86
2022/11/22 11:12:30;;;;;;;5.25;0.93;;;10.00;99.90;;;;;;4922676;28;20046;-86
2022/11/22 11:15:26;;;;;;;8.25;1.60;;;10.00;99.90;;;;;;4990305;28;20045;-87
2022/11/22 11:17:59;;;;;;;4.03;0.93;;;10.00;99.90;;;;;;4938869;28;20031;-86
2022/11/22 11:20:33;;;;;;;4.75;0.80;;;10.00;99.90;;;;;;4961845;28;20478;-86
2022/11/22 11:22:58;;;;;;;6.57;0.85;;;10.00;99.90;;;;;;4929728;28;20463;-86
2022/11/22 11:25:31;;;;;;;5.65;0.70;;;10.40;99.90;;;;;;4939659;28;20042;-86
2022/11/22 11:28:02;;;;;;;2.88;0.95;;;10.30;99.90;;;;;;4939731;28;20391;-85
2022/11/22 11:30:35;;;;;;;6.93;0.75;;;10.50;99.90;;;;;;4945114;28;20424;-86
2022/11/22 11:33:01;;;;;;;6.65;1.77;;;10.50;99.90;;;;;;4940070;28;20038;-86
2022/11/22 11:35:29;;;;;;;6.40;0.73;;;10.80;99.90;;;;;;4936286;28;20447;-87
2022/11/22 11:38:41;;;;;;;2.05;0.77;;;10.60;99.90;;;;;;4952849;28;20031;-86
2022/11/22 11:41:47;;;;;;;5.57;1.00;;;10.80;99.90;;;;;;4925549;28;20661;-87
2022/11/22 11:44:35;;;;;;;2.47;0.40;;;10.90;99.90;;;;;;4962692;28;20042;-86
2022/11/22 11:47:01;;;;;;;5.65;0.68;;;11.20;99.90;;;;;;4925270;28;20108;-86
2022/11/22 11:49:28;;;;;;;3.40;1.10;;;11.40;99.90;;;;;;4933522;28;20055;-86
2022/11/22 11:52:11;;;;;;;2.42;0.60;;;11.20;99.90;;;;;;4950954;28;20554;-87
2022/11/22 11:54:37;;;;;;;2.85;0.63;;;10.90;99.90;;;;;;4932928;28;20034;-85
2022/11/22 11:57:03;;;;;;;2.63;0.65;;;11.10;99.90;;;;;;4946948;28;20034;-86
2022/11/22 12:03:15;;;;;;;3.38;0.70;;;11.00;99.90;;;;;;4915952;29;20687;-86
2022/11/22 12:05:43;;;;;;;2.78;0.95;;;11.10;99.90;;;;;;4876218;29;20043;-86
2022/11/22 12:08:29;;;;;;;5.18;0.70;;;11.10;99.90;;;;;;4891160;28;20070;-86
2022/11/22 12:11:03;;;;;;;6.00;0.60;;;10.90;99.90;;;;;;4932947;28;20118;-86
2022/11/22 12:13:39;;;;;;;5.28;1.15;;;10.90;99.90;;;;;;4934903;28;20027;-86
2022/11/22 12:16:28;;;;;;;3.50;0.60;;;10.70;99.90;;;;;;4952615;28;20031;-86
2022/11/22 12:18:59;;;;;;;5.45;0.70;;;10.90;99.90;;;;;;4935704;28;20027;-86
2022/11/22 12:21:58;;;;;;;4.13;0.80;;;11.20;99.90;;;;;;4944894;28;20580;-86
2022/11/22 12:24:39;;;;;;;5.35;0.68;;;11.40;99.90;;;;;;4961266;28;20041;-86
2022/11/22 12:27:10;;;;;;;3.53;0.70;;;11.40;99.90;;;;;;4924424;28;20035;-86
2022/11/22 12:29:43;;;;;;;3.70;0.50;;;11.80;99.90;;;;;;4908643;28;20041;-86
2022/11/22 12:32:31;;;;;;;2.80;0.90;;;11.90;99.90;;;;;;4932914;28;20035;-85
2022/11/22 12:35:06;;;;;;;5.97;0.70;;;12.10;99.90;;;;;;4935136;28;20042;-85
2022/11/22 12:37:43;;;;;;;2.67;0.60;;;12.20;99.90;;;;;;4977688;28;20106;-85
2022/11/22 12:40:15;;;;;;;4.82;0.60;;;12.10;99.90;;;;;;4966517;28;20457;-85
2022/11/22 12:42:49;;;;;;;2.05;0.55;;;12.20;99.90;;;;;;4960584;28;20031;-85
2022/11/22 12:45:31;;;;;;;2.95;0.82;;;12.10;99.90;;;;;;4962180;28;20750;-85
2022/11/22 12:47:59;;;;;;;4.03;1.15;;;12.30;99.90;;;;;;4950435;28;20435;-86
2022/11/22 12:50:45;;;;;;;1.33;0.50;;;12.30;99.90;;;;;;4938602;28;20085;-85
2022/11/22 12:53:13;;;;;;;1.95;0.55;;;12.20;99.90;;;;;;4943878;28;20027;-85
2022/11/22 12:55:52;;;;;;;2.55;0.40;;;12.00;99.90;;;;;;4950767;28;20027;-85
2022/11/22 12:58:23;;;;;;;1.02;0.50;;;12.00;99.90;;;;;;4953285;28;20094;-85
2022/11/22 13:01:26;;;;;;;1.80;0.45;;;12.10;99.90;;;;;;4933429;28;20031;-84
2022/11/22 13:03:55;;;;;;;3.20;0.68;;;12.00;99.90;;;;;;4953615;28;20055;-85
2022/11/22 13:06:57;;;;;;;1.45;0.35;;;12.10;99.90;;;;;;4932355;28;20039;-85
2022/11/22 13:09:35;;;;;;;1.58;0.30;;;12.20;99.90;;;;;;4934800;28;20070;-85
2022/11/22 13:12:29;;;;;;;4.18;0.45;;;12.20;99.90;;;;;;4950582;28;20046;-85
2022/11/22 13:14:55;;;;;;;3.53;0.50;;;12.30;99.90;;;;;;4934278;28;20054;-85
2022/11/22 13:17:23;;;;;;;0.82;0.20;;;12.20;99.90;;;;;;4939089;28;20065;-86
2022/11/22 13:19:54;;;;;;;0.13;0.10;;;12.10;99.90;;;;;;4952320;28;20059;-85
2022/11/22 13:22:34;;;;;;;0.55;0.32;;;12.20;99.90;;;;;;4955798;28;20023;-85
2022/11/22 13:25:22;;;;;;;2.60;0.75;;;11.90;99.90;;;;;;4939978;28;20027;-85